createdAt,value
2018-12-11T00:01:15.425Z,5.90
2018-12-11T00:03:42.669Z,5.55
2018-12-11T00:06:10.061Z,6.35
2018-12-11T00:08:37.438Z,6.42
2018-12-11T00:11:04.766Z,6.45
2018-12-11T00:13:32.142Z,5.80
2018-12-11T00:15:59.521Z,5.87
2018-12-11T00:18:26.864Z,6.25
2018-12-11T00:20:54.201Z,6.50
2018-12-11T00:23:21.663Z,6.08
2018-12-11T00:25:48.991Z,6.10
2018-12-11T00:28:16.293Z,6.35
2018-12-11T00:30:43.618Z,5.83
2018-12-11T00:33:10.976Z,5.42
2018-12-11T00:35:38.307Z,6.45
2018-12-11T00:38:05.627Z,5.85
2018-12-11T00:40:32.966Z,5.25
2018-12-11T00:43:00.721Z,6.05
2018-12-11T00:45:28.153Z,5.45
2018-12-11T00:47:55.527Z,6.40
2018-12-11T00:50:22.856Z,6.15
2018-12-11T00:52:50.182Z,6.00
2018-12-11T00:55:17.528Z,5.95
2018-12-11T00:57:44.872Z,5.35
2018-12-11T01:00:12.272Z,6.05
2018-12-11T01:02:39.500Z,6.05
2018-12-11T01:05:06.987Z,5.40
2018-12-11T01:07:34.318Z,5.90
2018-12-11T01:10:03.748Z,6.33
2018-12-11T01:12:31.130Z,6.97
2018-12-11T01:14:58.460Z,6.25
2018-12-11T01:17:25.818Z,6.72
2018-12-11T01:19:53.157Z,7.17
2018-12-11T01:22:20.486Z,6.87
2018-12-11T01:24:47.824Z,5.40
2018-12-11T01:27:15.149Z,7.58
2018-12-11T01:29:42.444Z,6.03
2018-12-11T01:32:09.801Z,7.03
2018-12-11T01:34:37.123Z,7.75
2018-12-11T01:37:04.469Z,7.47
2018-12-11T01:39:31.795Z,6.75
2018-12-11T01:41:59.157Z,8.38
2018-12-11T01:44:26.567Z,7.10
2018-12-11T01:46:53.893Z,7.50
2018-12-11T01:49:21.245Z,6.33
2018-12-11T01:51:48.575Z,8.00
2018-12-11T01:54:15.904Z,6.95
2018-12-11T01:56:43.229Z,8.95
2018-12-11T01:59:10.613Z,7.97
2018-12-11T02:01:37.999Z,6.45
2018-12-11T02:04:05.360Z,6.92
2018-12-11T02:06:33.099Z,6.60
2018-12-11T02:09:00.428Z,6.97
2018-12-11T02:11:27.820Z,6.62
2018-12-11T02:13:55.159Z,7.47
2018-12-11T02:16:22.410Z,7.53
2018-12-11T02:18:49.737Z,6.92
2018-12-11T02:21:17.093Z,6.15
2018-12-11T02:23:44.414Z,6.25
2018-12-11T02:26:11.740Z,5.47
2018-12-11T02:28:39.179Z,6.53
2018-12-11T02:31:06.567Z,6.55
2018-12-11T02:33:33.910Z,5.83
2018-12-11T02:36:01.244Z,5.60
2018-12-11T02:38:28.570Z,6.62
2018-12-11T02:40:55.952Z,5.65
2018-12-11T02:43:23.179Z,6.25
2018-12-11T02:45:50.513Z,5.80
2018-12-11T02:48:17.873Z,5.58
2018-12-11T02:50:45.115Z,5.67
2018-12-11T02:53:12.545Z,4.85
2018-12-11T02:55:39.914Z,6.08
2018-12-11T02:58:07.246Z,4.75
2018-12-11T03:00:34.728Z,5.03
2018-12-11T03:03:01.937Z,4.65
2018-12-11T03:05:29.270Z,5.00
2018-12-11T03:07:56.607Z,7.15
2018-12-11T03:10:23.939Z,5.30
2018-12-11T03:12:51.287Z,5.58
2018-12-11T03:15:18.614Z,4.95
2018-12-11T03:17:45.971Z,4.95
2018-12-11T03:20:13.311Z,5.42
2018-12-11T03:22:40.548Z,4.78
2018-12-11T03:25:07.980Z,4.47
2018-12-11T03:27:35.187Z,4.80
2018-12-11T03:30:02.734Z,4.53
2018-12-11T03:32:30.141Z,5.05
2018-12-11T03:34:57.408Z,4.92
2018-12-11T03:37:24.716Z,5.67
2018-12-11T03:39:52.057Z,4.70
2018-12-11T03:42:19.356Z,5.72
2018-12-11T03:44:46.650Z,5.40
2018-12-11T03:47:14.113Z,4.35
2018-12-11T03:49:41.464Z,4.58
2018-12-11T03:52:08.818Z,3.50
2018-12-11T03:54:36.145Z,5.53
2018-12-11T03:57:03.485Z,4.83
2018-12-11T03:59:30.823Z,4.65
2018-12-11T04:01:58.179Z,4.58
2018-12-11T04:04:25.569Z,4.53
2018-12-11T04:06:52.902Z,5.58
2018-12-11T04:09:27.013Z,4.10
2018-12-11T04:11:54.606Z,4.55
2018-12-11T04:14:22.148Z,4.47
2018-12-11T04:16:49.498Z,4.25
2018-12-11T04:19:16.831Z,3.40
2018-12-11T04:21:44.223Z,4.17
2018-12-11T04:24:11.771Z,4.00
2018-12-11T04:26:39.117Z,3.45
2018-12-11T04:29:06.455Z,3.80
2018-12-11T04:31:33.757Z,3.15
2018-12-11T04:34:01.114Z,3.40
2018-12-11T04:36:28.443Z,3.70
2018-12-11T04:38:55.817Z,3.67
2018-12-11T04:41:23.095Z,3.42
2018-12-11T04:43:50.423Z,3.50
2018-12-11T04:46:17.776Z,4.10
2018-12-11T04:48:45.144Z,3.20
2018-12-11T04:51:12.493Z,3.75
2018-12-11T04:53:39.695Z,4.50
2018-12-11T04:56:07.079Z,3.70
2018-12-11T04:58:34.379Z,3.85
2018-12-11T05:01:01.700Z,4.87
2018-12-11T05:03:28.946Z,3.40
2018-12-11T05:05:56.285Z,4.33
2018-12-11T05:08:23.670Z,4.35
2018-12-11T05:10:51.004Z,4.70
2018-12-11T05:13:18.362Z,4.33
2018-12-11T05:15:45.582Z,4.78
2018-12-11T05:18:12.920Z,4.58
2018-12-11T05:20:40.282Z,4.55
2018-12-11T05:23:07.642Z,4.90
2018-12-11T05:25:35.006Z,4.05
2018-12-11T05:28:02.452Z,4.70
2018-12-11T05:30:29.789Z,4.00
2018-12-11T05:32:57.028Z,4.17
2018-12-11T05:35:24.352Z,4.12
2018-12-11T05:37:51.626Z,4.12
2018-12-11T05:40:18.967Z,3.42
2018-12-11T05:42:46.272Z,3.67
2018-12-11T05:45:13.680Z,4.30
2018-12-11T05:47:41.882Z,3.40
2018-12-11T05:50:09.310Z,3.87
2018-12-11T05:52:36.556Z,3.70
2018-12-11T05:55:04.138Z,4.87
2018-12-11T05:57:31.595Z,4.30
2018-12-11T05:59:58.927Z,3.58
2018-12-11T06:02:26.255Z,3.72
2018-12-11T06:04:53.584Z,3.60
2018-12-11T06:07:22.627Z,4.50
2018-12-11T06:09:49.970Z,3.25
2018-12-11T06:12:17.304Z,4.00
2018-12-11T06:14:44.638Z,4.05
2018-12-11T06:17:11.969Z,3.10
2018-12-11T06:19:39.337Z,3.47
2018-12-11T06:22:06.647Z,4.65
2018-12-11T06:24:33.953Z,3.27
2018-12-11T06:27:01.303Z,3.55
2018-12-11T06:29:28.530Z,4.03
2018-12-11T06:31:55.854Z,4.10
2018-12-11T06:34:23.216Z,3.22
2018-12-11T06:36:50.548Z,3.30
2018-12-11T06:39:17.874Z,3.60
2018-12-11T06:41:45.232Z,3.15
2018-12-11T06:44:12.565Z,3.62
2018-12-11T06:46:39.892Z,3.37
2018-12-11T06:49:07.235Z,4.22
2018-12-11T06:51:34.548Z,2.90
2018-12-11T06:54:01.890Z,3.00
2018-12-11T06:56:29.239Z,3.10
2018-12-11T06:58:56.569Z,3.50
2018-12-11T07:01:23.829Z,3.95
2018-12-11T07:03:51.149Z,2.80
2018-12-11T07:06:18.720Z,3.80
2018-12-11T07:08:46.065Z,3.25
2018-12-11T07:11:13.440Z,4.10
2018-12-11T07:13:40.757Z,3.42
2018-12-11T07:16:08.096Z,3.00
2018-12-11T07:18:35.443Z,3.70
2018-12-11T07:21:03.019Z,3.95
2018-12-11T07:23:30.371Z,2.90
2018-12-11T07:25:57.694Z,4.45
2018-12-11T07:28:25.031Z,4.05
2018-12-11T07:30:52.515Z,3.80
2018-12-11T07:33:19.883Z,4.15
2018-12-11T07:35:47.196Z,5.22
2018-12-11T07:38:14.425Z,3.45
2018-12-11T07:40:41.779Z,3.30
2018-12-11T07:43:09.083Z,3.42
2018-12-11T07:45:36.440Z,3.10
2018-12-11T07:48:03.797Z,2.92
2018-12-11T07:50:31.177Z,3.67
2018-12-11T07:52:58.513Z,3.50
2018-12-11T07:55:25.831Z,3.83
2018-12-11T07:57:53.219Z,3.20
2018-12-11T08:00:20.565Z,3.10
2018-12-11T08:02:47.967Z,4.20
2018-12-11T08:05:15.301Z,3.47
2018-12-11T08:07:42.613Z,2.65
2018-12-11T08:10:09.936Z,2.87
2018-12-11T08:12:37.275Z,2.50
2018-12-11T08:15:05.162Z,2.95
2018-12-11T08:17:32.519Z,2.67
2018-12-11T08:19:59.841Z,3.50
2018-12-11T08:22:27.188Z,3.17
2018-12-11T08:24:54.535Z,2.90
2018-12-11T08:27:21.823Z,3.65
2018-12-11T08:29:49.166Z,2.72
2018-12-11T08:32:16.527Z,2.72
2018-12-11T08:34:44.002Z,3.37
2018-12-11T08:37:11.340Z,2.42
2018-12-11T08:39:38.989Z,2.87
2018-12-11T08:42:06.348Z,3.20
2018-12-11T08:44:33.698Z,2.95
2018-12-11T08:47:01.047Z,2.37
2018-12-11T08:49:28.372Z,3.05
2018-12-11T08:51:55.747Z,2.83
2018-12-11T08:54:23.170Z,2.70
2018-12-11T08:56:50.505Z,3.00
2018-12-11T08:59:17.875Z,3.50
2018-12-11T09:01:45.356Z,2.58
2018-12-11T09:04:12.680Z,2.70
2018-12-11T09:06:39.942Z,3.20
2018-12-11T09:09:07.193Z,2.80
2018-12-11T09:11:34.537Z,2.77
2018-12-11T09:14:01.920Z,2.72
2018-12-11T09:16:29.285Z,3.05
2018-12-11T09:18:56.769Z,2.70
2018-12-11T09:21:24.175Z,4.00
2018-12-11T09:23:51.452Z,2.95
2018-12-11T09:26:18.811Z,3.15
2018-12-11T09:28:46.175Z,2.65
2018-12-11T09:31:13.590Z,3.10
2018-12-11T09:33:41.070Z,3.83
2018-12-11T09:36:08.304Z,3.05
2018-12-11T09:38:35.656Z,3.30
2018-12-11T09:41:02.985Z,2.95
2018-12-11T09:43:30.288Z,3.37
2018-12-11T09:45:57.776Z,3.10
2018-12-11T09:48:25.141Z,2.90
2018-12-11T09:50:52.530Z,3.40
2018-12-11T09:53:19.866Z,2.58
2018-12-11T09:55:47.450Z,3.40
2018-12-11T09:58:15.660Z,2.65
2018-12-11T10:00:43.154Z,2.80
2018-12-11T10:03:10.914Z,3.25
2018-12-11T10:05:38.270Z,3.37
2018-12-11T10:08:05.531Z,2.87
2018-12-11T10:10:33.029Z,3.10
2018-12-11T10:13:00.552Z,2.70
2018-12-11T10:15:27.906Z,2.80
2018-12-11T10:17:55.326Z,3.55
2018-12-11T10:20:23.152Z,3.92
2018-12-11T10:22:50.527Z,3.72
2018-12-11T10:25:17.956Z,3.30
2018-12-11T10:27:45.311Z,2.45
2018-12-11T10:30:12.810Z,3.75
2018-12-11T10:32:40.062Z,5.00
2018-12-11T10:35:07.661Z,3.80
2018-12-11T10:37:35.153Z,3.40
2018-12-11T10:40:02.689Z,3.05
2018-12-11T10:42:30.021Z,3.15
2018-12-11T10:44:57.396Z,3.30
2018-12-11T10:47:24.893Z,2.98
2018-12-11T10:49:52.131Z,2.80
2018-12-11T10:52:19.571Z,3.65
2018-12-11T10:54:46.943Z,3.50
2018-12-11T10:57:14.363Z,3.25
2018-12-11T10:59:41.696Z,2.80
2018-12-11T11:04:54.156Z,3.30
2018-12-11T11:07:21.948Z,3.80
2018-12-11T11:09:49.644Z,3.02
2018-12-11T11:12:17.058Z,3.30
2018-12-11T11:14:44.549Z,2.98
2018-12-11T11:17:11.891Z,3.67
2018-12-11T11:19:39.224Z,3.50
2018-12-11T11:22:07.683Z,3.55
2018-12-11T11:24:35.531Z,3.92
2018-12-11T11:27:03.100Z,3.42
2018-12-11T11:29:30.528Z,3.33
2018-12-11T11:31:57.957Z,3.12
2018-12-11T11:34:25.513Z,3.52
2018-12-11T11:36:52.768Z,2.98
2018-12-11T11:39:20.221Z,3.08
2018-12-11T11:41:47.616Z,3.52
2018-12-11T11:44:14.977Z,3.52
2018-12-11T11:46:42.335Z,4.40
2018-12-11T11:49:12.658Z,4.25
2018-12-11T11:51:40.351Z,3.33
2018-12-11T11:54:07.603Z,3.47
2018-12-11T11:56:35.102Z,4.20
2018-12-11T11:59:03.069Z,2.98
2018-12-11T12:01:30.779Z,3.65
2018-12-11T12:03:58.867Z,2.90
2018-12-11T12:06:26.377Z,3.40
2018-12-11T12:08:59.213Z,4.45
2018-12-11T12:11:23.238Z,3.30
2018-12-11T12:13:50.896Z,3.22
2018-12-11T12:16:18.477Z,3.20
2018-12-11T12:18:45.863Z,2.95
2018-12-11T12:21:13.272Z,2.87
2018-12-11T12:23:40.804Z,3.60
2018-12-11T12:26:08.209Z,2.98
2018-12-11T12:28:35.582Z,2.55
2018-12-11T12:31:03.427Z,2.75
2018-12-11T12:33:30.815Z,2.22
2018-12-11T12:35:58.257Z,2.90
2018-12-11T12:38:25.568Z,2.60
2018-12-11T12:40:52.998Z,3.85
2018-12-11T12:43:20.410Z,2.85
2018-12-11T12:45:47.793Z,3.17
2018-12-11T12:48:15.137Z,2.90
2018-12-11T12:50:42.487Z,2.22
2018-12-11T12:53:09.831Z,2.47
2018-12-11T12:55:37.159Z,2.90
2018-12-11T12:58:04.539Z,2.83
2018-12-11T13:00:31.867Z,2.40
2018-12-11T13:03:02.157Z,2.85
2018-12-11T13:05:29.510Z,3.00
2018-12-11T13:07:56.862Z,3.00
2018-12-11T13:10:24.226Z,2.80
2018-12-11T13:12:51.725Z,3.22
2018-12-11T13:15:19.108Z,3.10
2018-12-11T13:17:46.472Z,4.10
2018-12-11T13:20:13.856Z,2.90
2018-12-11T13:22:41.390Z,2.90
2018-12-11T13:25:08.749Z,2.58
2018-12-11T13:27:35.983Z,3.02
2018-12-11T13:30:04.419Z,2.77
2018-12-11T13:32:31.760Z,2.50
2018-12-11T13:34:59.135Z,2.40
2018-12-11T13:37:26.519Z,2.80
2018-12-11T13:39:53.924Z,2.40
2018-12-11T13:42:21.290Z,4.70
2018-12-11T13:44:48.693Z,2.92
2018-12-11T13:47:16.095Z,2.92
2018-12-11T13:49:43.507Z,3.00
2018-12-11T13:52:10.849Z,2.55
2018-12-11T13:54:38.264Z,3.47
2018-12-11T13:57:05.799Z,3.08
2018-12-11T13:59:33.287Z,3.45
2018-12-11T14:02:00.689Z,3.22
2018-12-11T14:04:28.062Z,3.17
2018-12-11T14:06:55.493Z,3.20
2018-12-11T14:09:28.584Z,3.20
2018-12-11T14:11:55.965Z,3.00
2018-12-11T14:14:23.234Z,3.52
2018-12-11T14:16:50.633Z,4.00
2018-12-11T14:19:17.933Z,4.15
2018-12-11T14:21:45.268Z,3.87
2018-12-11T14:24:12.704Z,3.60
2018-12-11T14:26:40.056Z,3.42
2018-12-11T14:29:07.342Z,3.77
2018-12-11T14:31:37.288Z,4.05
2018-12-11T14:34:04.667Z,3.52
2018-12-11T14:36:32.008Z,3.83
2018-12-11T14:38:59.363Z,3.92
2018-12-11T14:41:26.635Z,3.75
2018-12-11T14:43:53.992Z,4.15
2018-12-11T14:46:21.330Z,4.53
2018-12-11T14:48:48.752Z,3.75
2018-12-11T14:51:16.144Z,3.45
2018-12-11T14:53:43.516Z,3.70
2018-12-11T14:56:10.914Z,4.35
2018-12-11T14:58:38.312Z,3.40
2018-12-11T15:01:05.699Z,4.00
2018-12-11T15:03:33.116Z,4.80
2018-12-11T15:06:00.413Z,6.62
2018-12-11T15:08:27.792Z,4.53
2018-12-11T15:10:55.158Z,3.40
2018-12-11T15:13:22.563Z,4.22
2018-12-11T15:15:49.986Z,4.12
2018-12-11T15:18:17.408Z,4.10
2018-12-11T15:20:44.804Z,3.20
2018-12-11T15:23:12.190Z,4.83
2018-12-11T15:25:39.654Z,4.50
2018-12-11T15:28:07.091Z,4.00
2018-12-11T15:30:34.546Z,3.85
2018-12-11T15:33:01.973Z,4.53
2018-12-11T15:35:29.416Z,4.25
2018-12-11T15:37:56.733Z,4.28
2018-12-11T15:40:24.207Z,3.90
2018-12-11T15:42:51.685Z,3.72
2018-12-11T15:45:20.574Z,4.03
2018-12-11T15:47:47.949Z,4.40
2018-12-11T15:50:15.408Z,4.25
2018-12-11T15:52:42.851Z,4.35
2018-12-11T15:55:10.287Z,4.70
2018-12-11T15:57:37.657Z,4.28
2018-12-11T16:00:06.691Z,4.58
2018-12-11T16:02:35.188Z,4.83
2018-12-11T16:05:02.643Z,5.58
2018-12-11T16:07:30.235Z,5.03
2018-12-11T16:09:57.707Z,5.30
2018-12-11T16:12:25.083Z,5.53
2018-12-11T16:14:52.512Z,6.00
2018-12-11T16:17:20.016Z,4.67
2018-12-11T16:19:47.499Z,4.25
2018-12-11T16:22:14.931Z,5.05
2018-12-11T16:24:42.367Z,4.85
2018-12-11T16:27:09.996Z,4.83
2018-12-11T16:29:38.118Z,5.28
2018-12-11T16:32:05.628Z,4.30
2018-12-11T16:34:33.358Z,4.05
2018-12-11T16:37:00.830Z,3.87
2018-12-11T16:39:28.299Z,8.85
2018-12-11T16:41:55.857Z,5.75
2018-12-11T16:44:24.138Z,5.85
2018-12-11T16:46:51.657Z,5.22
2018-12-11T16:49:19.142Z,5.60
2018-12-11T16:51:46.569Z,5.87
2018-12-11T16:54:14.069Z,5.80
2018-12-11T16:56:41.492Z,6.30
2018-12-11T16:59:09.058Z,5.58
2018-12-11T17:01:36.574Z,5.58
2018-12-11T17:04:04.036Z,6.17
2018-12-11T17:06:31.480Z,5.50
2018-12-11T17:08:58.972Z,8.58
2018-12-11T17:11:27.776Z,7.90
2018-12-11T17:13:55.251Z,6.65
2018-12-11T17:16:23.253Z,7.05
2018-12-11T17:18:51.013Z,6.30
2018-12-11T17:21:18.569Z,5.72
2018-12-11T17:23:46.860Z,6.03
2018-12-11T17:29:25.425Z,6.60
2018-12-11T17:31:54.457Z,6.95
2018-12-11T17:34:21.988Z,6.08
2018-12-11T17:36:49.630Z,5.53
2018-12-11T17:39:17.267Z,6.00
2018-12-11T17:41:44.766Z,6.12
2018-12-11T17:44:12.251Z,6.00
2018-12-11T17:46:39.975Z,6.08
2018-12-11T17:49:07.508Z,6.50
2018-12-11T17:51:36.050Z,6.45
2018-12-11T17:54:04.247Z,5.85
2018-12-11T17:56:32.449Z,6.20
2018-12-11T17:59:00.180Z,5.90
2018-12-11T18:01:29.860Z,5.80
2018-12-11T18:03:57.391Z,6.67
2018-12-11T18:06:24.946Z,6.70
2018-12-11T18:08:52.429Z,8.25
2018-12-11T18:11:20.023Z,5.37
2018-12-11T18:13:48.484Z,7.97
2018-12-11T18:16:16.175Z,7.95
2018-12-11T18:18:44.115Z,7.72
2018-12-11T18:21:11.860Z,7.78
2018-12-11T18:23:39.883Z,7.67
2018-12-11T18:26:07.720Z,7.53
2018-12-11T18:28:35.351Z,8.03
2018-12-11T18:31:02.998Z,8.60
2018-12-11T18:33:30.637Z,7.50
2018-12-11T18:35:58.686Z,7.60
2018-12-11T18:38:27.446Z,7.20
2018-12-11T18:40:56.066Z,8.55
2018-12-11T18:43:23.993Z,8.70
2018-12-11T18:45:52.197Z,7.35
2018-12-11T18:48:20.986Z,8.10
2018-12-11T18:50:49.102Z,7.70
2018-12-11T18:53:18.080Z,7.75
2018-12-11T18:55:46.785Z,7.95
2018-12-11T18:58:15.009Z,8.10
2018-12-11T19:00:43.900Z,9.23
2018-12-11T19:03:12.328Z,6.70
2018-12-11T19:05:41.140Z,8.30
2018-12-11T19:08:10.266Z,7.85
2018-12-11T19:10:41.674Z,7.33
2018-12-11T19:13:09.883Z,8.13
2018-12-11T19:15:39.087Z,8.13
2018-12-11T19:18:07.663Z,7.80
2018-12-11T19:20:36.585Z,8.30
2018-12-11T19:23:16.950Z,7.53
2018-12-11T19:25:46.592Z,8.23
2018-12-11T19:28:15.707Z,7.05
2018-12-11T19:30:44.602Z,6.60
2018-12-11T19:33:13.347Z,7.65
2018-12-11T19:35:42.763Z,7.75
2018-12-11T19:38:13.309Z,7.53
2018-12-11T19:40:44.056Z,8.55
2018-12-11T19:43:13.426Z,8.80
2018-12-11T19:45:42.277Z,8.03
2018-12-11T19:48:11.904Z,9.48
2018-12-11T19:50:44.195Z,7.83
2018-12-11T19:53:15.994Z,8.53
2018-12-11T19:55:46.708Z,9.63
2018-12-11T19:58:16.187Z,8.00
2018-12-11T20:00:45.146Z,8.93
2018-12-11T20:03:13.758Z,8.13
2018-12-11T20:05:42.622Z,8.78
2018-12-11T20:08:12.057Z,8.33
2018-12-11T20:10:42.399Z,7.87
2018-12-11T20:13:12.755Z,9.00
2018-12-11T20:15:41.935Z,8.53
2018-12-11T20:18:13.015Z,9.03
2018-12-11T20:20:41.588Z,8.45
2018-12-11T20:23:10.033Z,8.40
2018-12-11T20:25:40.952Z,8.15
2018-12-11T20:28:09.597Z,9.35
2018-12-11T20:30:39.989Z,9.53
2018-12-11T20:33:10.560Z,8.43
2018-12-11T20:35:38.948Z,7.55
2018-12-11T20:38:08.033Z,8.60
2018-12-11T20:40:36.668Z,8.75
2018-12-11T20:43:07.350Z,8.35
2018-12-11T20:45:36.588Z,7.17
2018-12-11T20:48:05.684Z,9.58
2018-12-11T20:50:35.255Z,8.15
2018-12-11T20:53:04.763Z,9.33
2018-12-11T20:55:36.093Z,7.55
2018-12-11T20:58:04.806Z,7.30
2018-12-11T21:00:34.287Z,9.00
2018-12-11T21:03:02.805Z,8.60
2018-12-11T21:05:31.223Z,8.98
2018-12-11T21:07:59.917Z,7.92
2018-12-11T21:10:28.544Z,8.73
2018-12-11T21:12:57.780Z,8.23
2018-12-11T21:15:27.795Z,7.08
2018-12-11T21:17:55.697Z,8.33
2018-12-11T21:20:23.921Z,7.92
2018-12-11T21:22:51.710Z,8.55
2018-12-11T21:25:20.269Z,8.20
2018-12-11T21:27:48.050Z,8.25
2018-12-11T21:30:16.441Z,9.18
2018-12-11T21:32:45.149Z,7.35
2018-12-11T21:35:14.850Z,8.70
2018-12-11T21:37:42.700Z,8.38
2018-12-11T21:40:11.279Z,7.20
2018-12-11T21:42:40.749Z,8.63
2018-12-11T21:45:08.796Z,6.58
2018-12-11T21:47:37.003Z,7.40
2018-12-11T21:50:06.469Z,7.70
2018-12-11T21:52:34.821Z,6.97
2018-12-11T21:55:02.415Z,6.70
2018-12-11T21:57:30.914Z,6.60
2018-12-11T21:59:59.369Z,7.10
2018-12-11T22:02:31.428Z,7.65
2018-12-11T22:04:59.302Z,7.40
2018-12-11T22:07:28.141Z,9.05
2018-12-11T22:09:55.626Z,7.05
2018-12-11T22:12:23.602Z,6.33
2018-12-11T22:14:51.126Z,6.67
2018-12-11T22:17:18.585Z,6.95
2018-12-11T22:19:46.500Z,6.80
2018-12-11T22:22:13.948Z,6.70
2018-12-11T22:24:41.489Z,7.17
2018-12-11T22:27:08.961Z,7.50
2018-12-11T22:29:36.479Z,7.45
2018-12-11T22:32:04.144Z,7.53
2018-12-11T22:34:31.640Z,8.00
2018-12-11T22:36:59.457Z,8.45
2018-12-11T22:39:26.828Z,6.65
2018-12-11T22:41:54.246Z,7.25
2018-12-11T22:44:23.474Z,7.53
2018-12-11T22:49:32.898Z,7.65
2018-12-11T22:52:01.807Z,8.05
2018-12-11T22:54:30.688Z,9.33
2018-12-11T22:56:58.855Z,8.78
2018-12-11T22:59:26.198Z,7.65
2018-12-11T23:01:53.485Z,7.83
2018-12-11T23:04:20.855Z,8.15
2018-12-11T23:06:49.874Z,8.33
2018-12-11T23:09:19.327Z,7.70
2018-12-11T23:11:47.503Z,7.22
2018-12-11T23:14:16.935Z,8.00
2018-12-11T23:16:44.597Z,7.50
2018-12-11T23:19:11.951Z,7.35
2018-12-11T23:21:39.315Z,7.78
2018-12-11T23:24:06.593Z,8.00
2018-12-11T23:26:33.965Z,9.18
2018-12-11T23:29:01.301Z,8.70
2018-12-11T23:31:29.177Z,8.33
2018-12-11T23:33:56.513Z,8.50
2018-12-11T23:36:24.146Z,8.28
2018-12-11T23:38:51.832Z,8.38
2018-12-11T23:41:19.139Z,8.00
2018-12-11T23:43:46.511Z,7.83
2018-12-11T23:46:13.907Z,7.90
2018-12-11T23:48:41.527Z,7.95
2018-12-11T23:51:08.841Z,7.87
2018-12-11T23:53:36.435Z,7.08
2018-12-11T23:56:04.079Z,8.25
2018-12-11T23:58:31.343Z,8.98
